createdAt,value
2023-03-31T00:01:11.606Z,90.61
2023-03-31T00:03:44.862Z,90.95
2023-03-31T00:06:18.646Z,90.48
2023-03-31T00:08:52.406Z,90.13
2023-03-31T00:11:22.021Z,89.81
2023-03-31T00:13:51.847Z,90.55
2023-03-31T00:16:21.168Z,90.52
2023-03-31T00:18:51.462Z,90.02
2023-03-31T00:21:29.904Z,90.19
2023-03-31T00:24:00.236Z,90.03
2023-03-31T00:26:28.706Z,90.67
2023-03-31T00:28:59.106Z,90.99
2023-03-31T00:31:28.275Z,90.98
2023-03-31T00:33:56.766Z,90.87
2023-03-31T00:36:28.758Z,90.50
2023-03-31T00:38:59.660Z,90.20
2023-03-31T00:41:29.319Z,90.94
2023-03-31T00:44:13.294Z,90.05
2023-03-31T00:46:45.910Z,90.78
2023-03-31T00:49:22.998Z,90.23
2023-03-31T00:51:55.460Z,90.46
2023-03-31T00:54:27.308Z,90.82
2023-03-31T00:57:06.999Z,90.47
2023-03-31T00:59:41.459Z,89.94
2023-03-31T01:02:11.690Z,90.04
2023-03-31T01:04:42.688Z,90.19
2023-03-31T01:07:18.544Z,90.08
2023-03-31T01:09:49.269Z,89.76
2023-03-31T01:12:20.368Z,89.87
2023-03-31T01:14:51.401Z,90.04
2023-03-31T01:17:22.445Z,90.38
2023-03-31T01:20:11.757Z,90.99
2023-03-31T01:23:16.381Z,91.49
2023-03-31T01:26:18.428Z,91.70
2023-03-31T01:28:54.916Z,92.00
2023-03-31T01:31:51.298Z,92.38
2023-03-31T01:34:58.470Z,93.32
2023-03-31T01:37:59.818Z,94.08
2023-03-31T01:40:45.286Z,94.87
2023-03-31T01:43:20.188Z,95.34
2023-03-31T01:45:58.771Z,95.94
2023-03-31T01:48:36.978Z,95.29
2023-03-31T01:51:14.083Z,95.24
2023-03-31T01:53:50.943Z,95.14
2023-03-31T01:56:27.053Z,95.29
2023-03-31T01:59:00.761Z,95.88
2023-03-31T02:01:37.473Z,95.43
2023-03-31T02:04:11.293Z,95.26
2023-03-31T02:06:44.277Z,95.32
2023-03-31T02:09:17.797Z,94.78
2023-03-31T02:11:49.667Z,94.73
2023-03-31T02:14:23.575Z,94.74
2023-03-31T02:16:58.657Z,94.58
2023-03-31T02:19:31.764Z,94.98
2023-03-31T02:22:01.709Z,95.08
2023-03-31T02:24:34.855Z,95.42
2023-03-31T02:27:08.927Z,95.59
2023-03-31T02:29:37.635Z,95.87
2023-03-31T02:32:14.788Z,96.21
2023-03-31T02:34:43.676Z,97.06
2023-03-31T02:37:12.823Z,96.72
2023-03-31T02:39:47.792Z,96.70
2023-03-31T02:42:17.858Z,97.26
2023-03-31T02:44:46.608Z,96.91
2023-03-31T02:47:18.277Z,96.87
2023-03-31T02:49:50.596Z,96.73
2023-03-31T02:52:41.381Z,96.28
2023-03-31T02:55:20.327Z,95.77
2023-03-31T02:58:19.939Z,95.95
2023-03-31T03:01:05.809Z,95.83
2023-03-31T03:03:44.432Z,96.21
2023-03-31T03:06:24.190Z,96.63
2023-03-31T03:09:23.959Z,97.07
2023-03-31T03:12:02.267Z,97.07
2023-03-31T03:14:37.109Z,97.12
2023-03-31T03:17:08.893Z,96.70
2023-03-31T03:19:37.550Z,97.14
2023-03-31T03:22:07.340Z,96.82
2023-03-31T03:24:37.339Z,97.16
2023-03-31T03:27:06.118Z,97.68
2023-03-31T03:29:35.899Z,97.75
2023-03-31T03:32:04.450Z,97.38
2023-03-31T03:34:32.877Z,96.26
2023-03-31T03:37:00.961Z,96.26
2023-03-31T03:39:29.179Z,95.83
2023-03-31T03:41:57.697Z,95.81
2023-03-31T03:44:25.963Z,96.03
2023-03-31T03:46:55.526Z,96.03
2023-03-31T03:49:23.687Z,96.28
2023-03-31T03:51:52.898Z,96.32
2023-03-31T03:54:21.057Z,96.67
2023-03-31T03:56:49.293Z,96.68
2023-03-31T03:59:17.710Z,96.71
2023-03-31T04:01:45.894Z,96.85
2023-03-31T04:04:15.458Z,97.41
2023-03-31T04:06:44.012Z,97.64
2023-03-31T04:09:12.666Z,97.80
2023-03-31T04:11:41.027Z,98.25
2023-03-31T04:14:09.720Z,98.01
2023-03-31T04:16:38.569Z,98.11
2023-03-31T04:19:08.523Z,98.27
2023-03-31T04:21:45.038Z,97.85
2023-03-31T04:24:21.707Z,98.17
2023-03-31T04:26:51.113Z,98.02
2023-03-31T04:29:22.619Z,97.76
2023-03-31T04:31:52.828Z,97.72
2023-03-31T04:34:22.310Z,97.82
2023-03-31T04:36:51.945Z,97.25
2023-03-31T04:39:26.656Z,96.99
2023-03-31T04:41:55.367Z,97.00
2023-03-31T04:44:23.578Z,96.78
2023-03-31T04:46:52.254Z,96.08
2023-03-31T04:49:20.367Z,96.61
2023-03-31T04:51:48.857Z,96.99
2023-03-31T04:54:18.555Z,97.38
2023-03-31T04:56:47.420Z,97.20
2023-03-31T04:59:15.785Z,97.52
2023-03-31T05:01:45.227Z,96.34
2023-03-31T05:04:13.825Z,95.42
2023-03-31T05:06:42.801Z,94.26
2023-03-31T05:09:10.866Z,94.27
2023-03-31T05:11:40.328Z,93.67
2023-03-31T05:14:08.802Z,93.11
2023-03-31T05:16:37.026Z,92.90
2023-03-31T05:19:05.665Z,92.85
2023-03-31T05:21:34.252Z,92.88
2023-03-31T05:24:03.273Z,92.73
2023-03-31T05:26:31.654Z,92.72
2023-03-31T05:29:01.692Z,92.64
2023-03-31T05:31:30.096Z,92.58
2023-03-31T05:33:58.190Z,92.41
2023-03-31T05:36:27.218Z,91.60
2023-03-31T05:38:55.991Z,91.86
2023-03-31T05:41:24.253Z,91.57
2023-03-31T05:43:52.986Z,90.88
2023-03-31T05:46:22.821Z,90.99
2023-03-31T05:48:51.027Z,90.90
2023-03-31T05:51:19.207Z,90.35
2023-03-31T05:57:44.206Z,89.71
2023-03-31T06:00:14.311Z,89.27
2023-03-31T06:02:44.129Z,88.46
2023-03-31T06:05:12.324Z,87.61
2023-03-31T06:07:40.618Z,87.17
2023-03-31T06:10:11.007Z,87.13
2023-03-31T06:12:40.384Z,87.37
2023-03-31T06:15:09.468Z,86.48
2023-03-31T06:17:38.792Z,87.54
2023-03-31T06:20:23.954Z,87.37
2023-03-31T06:22:55.299Z,87.28
2023-03-31T06:25:23.350Z,86.62
2023-03-31T06:27:51.867Z,85.75
2023-03-31T06:30:20.072Z,85.38
2023-03-31T06:32:48.979Z,85.36
2023-03-31T06:35:18.977Z,86.35
2023-03-31T06:37:47.078Z,86.00
2023-03-31T06:40:15.960Z,85.88
2023-03-31T06:42:44.602Z,83.49
2023-03-31T06:45:14.998Z,83.21
2023-03-31T06:47:43.498Z,83.03
2023-03-31T06:50:12.429Z,82.58
2023-03-31T06:52:42.099Z,82.65
2023-03-31T06:55:13.497Z,82.17
2023-03-31T06:57:41.959Z,80.60
2023-03-31T07:00:11.484Z,79.84
2023-03-31T07:02:39.710Z,80.96
2023-03-31T07:05:08.858Z,81.85
2023-03-31T07:07:37.441Z,81.52
2023-03-31T07:10:07.939Z,79.78
2023-03-31T07:12:36.512Z,80.01
2023-03-31T07:15:06.605Z,73.96
2023-03-31T07:17:35.467Z,57.53
2023-03-31T07:20:05.727Z,51.56
2023-03-31T07:22:34.129Z,57.53
2023-03-31T07:25:02.906Z,63.60
2023-03-31T07:27:32.466Z,70.63
2023-03-31T07:30:00.592Z,72.48
2023-03-31T07:32:29.495Z,75.77
2023-03-31T07:34:57.752Z,75.14
2023-03-31T07:37:26.641Z,75.98
2023-03-31T07:39:55.275Z,77.60
2023-03-31T07:42:23.798Z,75.54
2023-03-31T07:44:53.680Z,71.64
2023-03-31T07:47:21.941Z,70.07
2023-03-31T07:49:50.498Z,71.46
2023-03-31T07:52:19.920Z,70.97
2023-03-31T07:54:48.637Z,71.58
2023-03-31T07:57:19.377Z,69.01
2023-03-31T07:59:48.400Z,67.93
2023-03-31T08:02:19.042Z,68.85
2023-03-31T08:04:48.702Z,62.14
2023-03-31T08:07:18.055Z,59.26
2023-03-31T08:09:48.081Z,53.91
2023-03-31T08:12:16.860Z,54.94
2023-03-31T08:14:44.895Z,55.33
2023-03-31T08:17:13.612Z,51.97
2023-03-31T08:19:43.057Z,57.67
2023-03-31T08:22:11.160Z,52.52
2023-03-31T08:24:39.326Z,58.62
2023-03-31T08:27:11.959Z,58.60
2023-03-31T08:29:40.711Z,59.19
2023-03-31T08:32:09.143Z,66.96
2023-03-31T08:34:38.204Z,68.12
2023-03-31T08:37:07.932Z,70.38
2023-03-31T08:39:37.386Z,73.19
2023-03-31T08:42:13.956Z,72.49
2023-03-31T08:44:49.450Z,74.19
2023-03-31T08:47:21.493Z,75.90
2023-03-31T08:49:54.378Z,77.71
2023-03-31T08:52:31.081Z,76.03
2023-03-31T08:55:03.149Z,77.15
2023-03-31T08:57:36.907Z,76.71
2023-03-31T09:00:07.596Z,76.33
2023-03-31T09:02:49.021Z,77.12
2023-03-31T09:05:59.657Z,77.77
2023-03-31T09:08:39.250Z,78.38
2023-03-31T09:11:13.347Z,79.39
2023-03-31T09:14:06.293Z,81.19
2023-03-31T09:16:40.177Z,82.03
2023-03-31T09:19:14.932Z,83.25
2023-03-31T09:21:45.560Z,82.38
2023-03-31T09:24:21.107Z,82.62
2023-03-31T09:26:54.844Z,81.52
2023-03-31T09:29:29.662Z,79.92
2023-03-31T09:32:03.127Z,77.03
2023-03-31T09:34:34.969Z,79.83
2023-03-31T09:37:04.586Z,81.57
2023-03-31T09:39:34.637Z,77.92
2023-03-31T09:42:02.983Z,81.58
2023-03-31T09:44:38.558Z,81.21
2023-03-31T09:47:11.290Z,82.25
2023-03-31T09:49:41.885Z,80.68
2023-03-31T09:52:29.946Z,81.03
2023-03-31T09:55:02.964Z,83.62
2023-03-31T09:57:34.369Z,82.12
2023-03-31T10:00:16.839Z,81.28
2023-03-31T10:02:49.240Z,83.10
2023-03-31T10:05:32.431Z,84.56
2023-03-31T10:08:24.172Z,86.13
2023-03-31T10:10:55.891Z,85.52
2023-03-31T10:13:26.739Z,87.04
2023-03-31T10:15:57.263Z,86.35
2023-03-31T10:18:35.812Z,87.49
2023-03-31T10:21:06.599Z,86.16
2023-03-31T10:23:37.181Z,89.77
2023-03-31T10:26:06.913Z,89.83
2023-03-31T10:28:38.183Z,89.32
2023-03-31T10:31:08.712Z,89.50
2023-03-31T10:33:42.165Z,90.00
2023-03-31T10:36:20.465Z,89.51
2023-03-31T10:38:50.101Z,89.01
2023-03-31T10:41:23.805Z,87.96
2023-03-31T10:43:53.630Z,87.70
2023-03-31T10:46:22.871Z,88.65
2023-03-31T10:48:52.848Z,89.04
2023-03-31T10:51:22.884Z,88.95
2023-03-31T10:53:53.028Z,89.33
2023-03-31T10:56:36.279Z,90.62
2023-03-31T10:59:16.173Z,88.67
2023-03-31T11:02:02.151Z,89.72
2023-03-31T11:04:45.805Z,89.59
2023-03-31T11:07:28.649Z,90.20
2023-03-31T11:10:11.637Z,89.23
2023-03-31T11:12:50.555Z,89.68
2023-03-31T11:15:26.740Z,90.14
2023-03-31T11:18:07.996Z,89.45
2023-03-31T11:20:44.265Z,90.46
2023-03-31T11:23:22.423Z,88.83
2023-03-31T11:25:59.181Z,88.78
2023-03-31T11:28:47.776Z,89.70
2023-03-31T11:31:29.395Z,87.48
2023-03-31T11:34:16.373Z,89.96
2023-03-31T11:37:00.989Z,91.39
2023-03-31T11:39:41.565Z,90.12
2023-03-31T11:42:16.850Z,92.05
2023-03-31T11:44:53.059Z,91.57
2023-03-31T11:47:26.325Z,92.53
2023-03-31T11:49:59.144Z,91.92
2023-03-31T11:52:31.074Z,91.64
2023-03-31T11:55:05.024Z,93.37
2023-03-31T11:57:37.758Z,93.24
2023-03-31T12:00:20.848Z,93.18
2023-03-31T12:02:55.785Z,93.19
2023-03-31T12:05:28.094Z,93.58
2023-03-31T12:08:01.208Z,94.15
2023-03-31T12:10:35.737Z,93.60
2023-03-31T12:13:22.195Z,94.85
2023-03-31T12:16:01.499Z,94.90
2023-03-31T12:18:34.075Z,95.90
2023-03-31T12:21:06.171Z,94.93
2023-03-31T12:23:40.540Z,94.26
2023-03-31T12:26:18.620Z,96.39
2023-03-31T12:28:48.256Z,96.24
2023-03-31T12:31:24.605Z,95.25
2023-03-31T12:33:57.517Z,95.55
2023-03-31T12:36:46.307Z,94.24
2023-03-31T12:39:29.752Z,94.11
2023-03-31T12:42:17.069Z,93.44
2023-03-31T12:44:57.169Z,94.63
2023-03-31T12:47:57.824Z,94.63
2023-03-31T12:50:48.674Z,95.40
2023-03-31T12:53:26.740Z,94.40
2023-03-31T12:55:58.062Z,96.26
2023-03-31T12:58:44.469Z,96.30
2023-03-31T13:01:21.643Z,95.90
2023-03-31T13:04:09.767Z,96.46
2023-03-31T13:07:03.244Z,95.78
2023-03-31T13:09:52.968Z,95.88
2023-03-31T13:12:23.606Z,93.73
2023-03-31T13:14:54.583Z,93.52
2023-03-31T13:17:27.302Z,94.13
2023-03-31T13:20:13.457Z,94.13
2023-03-31T13:22:47.268Z,95.23
2023-03-31T13:25:47.058Z,94.85
2023-03-31T13:28:27.000Z,95.16
2023-03-31T13:30:57.896Z,95.86
2023-03-31T13:33:29.771Z,96.54
2023-03-31T13:36:17.038Z,96.53
2023-03-31T13:39:00.494Z,96.04
2023-03-31T13:41:43.518Z,96.08
2023-03-31T13:44:32.849Z,96.02
2023-03-31T13:47:28.982Z,95.32
2023-03-31T13:50:14.788Z,95.07
2023-03-31T13:52:54.433Z,95.62
2023-03-31T13:55:50.925Z,95.15
2023-03-31T13:58:35.128Z,95.30
2023-03-31T14:01:19.581Z,93.67
2023-03-31T14:03:59.940Z,95.39
2023-03-31T14:06:35.603Z,94.27
2023-03-31T14:09:09.239Z,94.88
2023-03-31T14:11:37.838Z,95.23
2023-03-31T14:14:15.703Z,94.36
2023-03-31T14:16:47.804Z,94.05
2023-03-31T14:19:52.965Z,94.41
2023-03-31T14:22:32.326Z,93.27
2023-03-31T14:25:13.984Z,92.74
2023-03-31T14:27:58.723Z,92.68
2023-03-31T14:30:42.463Z,92.40
2023-03-31T14:33:28.246Z,89.27
2023-03-31T14:36:01.901Z,89.65
2023-03-31T14:38:32.171Z,87.22
2023-03-31T14:41:02.085Z,89.74
2023-03-31T14:43:34.096Z,88.73
2023-03-31T14:46:03.406Z,90.43
2023-03-31T14:48:34.344Z,88.17
2023-03-31T14:51:04.217Z,87.32
2023-03-31T14:53:32.892Z,88.58
2023-03-31T14:56:07.675Z,88.83
2023-03-31T14:58:39.598Z,89.19
2023-03-31T15:01:10.825Z,89.06
2023-03-31T15:03:42.865Z,88.28
2023-03-31T15:06:12.439Z,90.12
2023-03-31T15:08:41.412Z,91.45
2023-03-31T15:11:17.841Z,90.44
2023-03-31T15:14:00.590Z,91.58
2023-03-31T15:16:38.095Z,91.48
2023-03-31T15:19:13.262Z,92.24
2023-03-31T15:21:41.888Z,90.27
2023-03-31T15:24:14.380Z,88.80
2023-03-31T15:26:50.536Z,89.84
2023-03-31T15:29:23.541Z,90.33
2023-03-31T15:31:52.099Z,90.84
2023-03-31T15:34:24.900Z,91.06
2023-03-31T15:36:56.465Z,90.77
2023-03-31T15:39:26.047Z,91.66
2023-03-31T15:41:57.293Z,90.70
2023-03-31T15:44:40.073Z,88.70
2023-03-31T15:47:14.982Z,88.77
2023-03-31T15:49:51.145Z,85.50
2023-03-31T15:52:30.157Z,85.85
2023-03-31T15:54:58.823Z,85.76
2023-03-31T15:57:35.612Z,86.46
2023-03-31T16:00:07.395Z,86.51
2023-03-31T16:02:47.048Z,88.36
2023-03-31T16:05:43.700Z,89.12
2023-03-31T16:08:24.412Z,90.99
2023-03-31T16:11:00.429Z,91.75
2023-03-31T16:13:32.894Z,92.31
2023-03-31T16:16:02.062Z,91.92
2023-03-31T16:18:35.880Z,92.37
2023-03-31T16:21:06.624Z,90.80
2023-03-31T16:23:38.849Z,91.13
2023-03-31T16:26:08.185Z,92.30
2023-03-31T16:28:39.153Z,92.52
2023-03-31T16:31:34.676Z,92.94
2023-03-31T16:34:04.622Z,91.96
2023-03-31T16:36:32.834Z,91.51
2023-03-31T16:39:03.737Z,90.82
2023-03-31T16:41:33.499Z,90.02
2023-03-31T16:44:02.545Z,90.41
2023-03-31T16:46:32.187Z,90.78
2023-03-31T16:49:00.719Z,91.69
2023-03-31T16:51:28.885Z,92.47
2023-03-31T16:53:59.276Z,93.29
2023-03-31T16:56:27.971Z,93.30
2023-03-31T16:58:56.501Z,91.96
2023-03-31T17:01:24.925Z,91.96
2023-03-31T17:03:55.273Z,91.73
2023-03-31T17:06:23.961Z,91.60
2023-03-31T17:08:52.347Z,92.44
2023-03-31T17:11:21.555Z,92.08
2023-03-31T17:14:15.702Z,91.15
2023-03-31T17:16:48.379Z,90.86
2023-03-31T17:20:08.159Z,91.17
2023-03-31T17:22:38.730Z,91.33
2023-03-31T17:25:08.554Z,90.75
2023-03-31T17:27:37.644Z,90.10
2023-03-31T17:30:08.680Z,90.83
2023-03-31T17:32:38.092Z,90.77
2023-03-31T17:35:07.692Z,90.64
2023-03-31T17:37:38.669Z,90.52
2023-03-31T17:40:07.977Z,91.47
2023-03-31T17:42:36.791Z,91.17
2023-03-31T17:45:06.929Z,91.03
2023-03-31T17:47:34.891Z,90.92
2023-03-31T17:50:24.503Z,90.41
2023-03-31T17:52:55.792Z,89.36
2023-03-31T17:55:24.822Z,89.57
2023-03-31T17:57:53.146Z,89.90
2023-03-31T18:00:21.880Z,89.73
2023-03-31T18:02:51.330Z,91.80
2023-03-31T18:05:20.316Z,92.70
2023-03-31T18:07:48.954Z,91.47
2023-03-31T18:10:18.898Z,93.40
2023-03-31T18:12:47.991Z,94.07
2023-03-31T18:15:16.765Z,94.57
2023-03-31T18:17:44.723Z,95.08
2023-03-31T18:20:14.143Z,95.31
2023-03-31T18:22:43.368Z,95.78
2023-03-31T18:25:12.062Z,96.47
2023-03-31T18:27:47.388Z,97.08
2023-03-31T18:30:15.959Z,97.21
2023-03-31T18:32:44.071Z,97.57
2023-03-31T18:35:12.415Z,97.24
2023-03-31T18:37:40.623Z,97.38
2023-03-31T18:40:10.893Z,97.59
2023-03-31T18:42:40.364Z,98.11
2023-03-31T18:45:10.719Z,97.94
2023-03-31T18:47:39.267Z,98.36
2023-03-31T18:50:09.433Z,98.32
2023-03-31T18:52:37.908Z,98.34
2023-03-31T18:55:06.815Z,97.82
2023-03-31T18:57:35.105Z,97.90
2023-03-31T19:00:04.021Z,97.94
2023-03-31T19:02:34.050Z,98.02
2023-03-31T19:05:02.770Z,97.91
2023-03-31T19:07:32.421Z,98.51
2023-03-31T19:10:00.504Z,98.31
2023-03-31T19:12:28.679Z,98.24
2023-03-31T19:14:57.254Z,98.82
2023-03-31T19:17:25.721Z,98.83
2023-03-31T19:19:55.461Z,98.42
2023-03-31T19:22:25.333Z,98.56
2023-03-31T19:24:53.587Z,98.32
2023-03-31T19:27:22.013Z,97.85
2023-03-31T19:29:50.435Z,98.10
2023-03-31T19:32:19.092Z,96.71
2023-03-31T19:34:47.686Z,94.93
2023-03-31T19:37:17.379Z,94.29
2023-03-31T19:39:45.533Z,93.37
2023-03-31T19:42:15.134Z,93.08
2023-03-31T19:44:44.621Z,93.31
2023-03-31T19:47:12.978Z,92.28
2023-03-31T19:49:41.780Z,90.21
2023-03-31T19:52:09.821Z,90.55
2023-03-31T19:54:40.009Z,90.58
2023-03-31T19:57:09.108Z,90.88
2023-03-31T19:59:37.397Z,88.72
2023-03-31T20:02:06.846Z,89.45
2023-03-31T20:04:35.891Z,89.20
2023-03-31T20:07:04.933Z,89.78
2023-03-31T20:09:33.325Z,89.33
2023-03-31T20:12:03.041Z,89.45
2023-03-31T20:14:31.261Z,88.78
2023-03-31T20:17:01.208Z,88.46
2023-03-31T20:19:29.742Z,89.50
2023-03-31T20:21:58.038Z,89.47
2023-03-31T20:24:27.506Z,89.80
2023-03-31T20:26:56.075Z,89.72
2023-03-31T20:29:26.244Z,89.79
2023-03-31T20:31:54.877Z,90.63
2023-03-31T20:34:23.550Z,90.23
2023-03-31T20:36:52.939Z,90.17
2023-03-31T20:39:21.791Z,91.10
2023-03-31T20:41:51.255Z,91.60
2023-03-31T20:44:19.490Z,91.61
2023-03-31T20:46:48.979Z,91.87
2023-03-31T20:49:17.183Z,91.94
2023-03-31T20:51:47.116Z,91.91
2023-03-31T20:54:15.239Z,92.22
2023-03-31T20:56:43.419Z,92.57
2023-03-31T20:59:15.017Z,92.73
2023-03-31T21:01:47.374Z,92.68
2023-03-31T21:04:18.148Z,93.18
2023-03-31T21:06:48.314Z,93.56
2023-03-31T21:09:17.482Z,94.23
2023-03-31T21:11:46.149Z,94.28
2023-03-31T21:14:16.584Z,94.36
2023-03-31T21:16:45.250Z,93.69
2023-03-31T21:19:13.555Z,93.79
2023-03-31T21:21:43.359Z,93.23
2023-03-31T21:24:13.334Z,92.91
2023-03-31T21:26:41.576Z,93.32
2023-03-31T21:29:10.007Z,92.94
2023-03-31T21:31:38.304Z,92.09
2023-03-31T21:34:07.141Z,92.09
2023-03-31T21:36:35.434Z,92.40
2023-03-31T21:39:05.569Z,92.62
2023-03-31T21:41:33.987Z,91.99
2023-03-31T21:44:03.319Z,91.29
2023-03-31T21:46:33.762Z,91.93
2023-03-31T21:49:02.653Z,92.50
2023-03-31T21:51:31.058Z,91.55
2023-03-31T21:53:59.602Z,91.55
2023-03-31T21:56:31.941Z,92.58
2023-03-31T21:59:01.335Z,92.53
2023-03-31T22:01:29.479Z,92.57
2023-03-31T22:03:57.625Z,92.86
2023-03-31T22:06:26.469Z,93.73
2023-03-31T22:08:54.730Z,94.24
2023-03-31T22:11:23.901Z,94.88
2023-03-31T22:13:53.990Z,94.84
2023-03-31T22:16:26.983Z,95.56
2023-03-31T22:18:55.815Z,96.19
2023-03-31T22:21:41.039Z,96.35
2023-03-31T22:24:12.821Z,96.52
2023-03-31T22:26:41.087Z,96.67
2023-03-31T22:29:15.503Z,96.91
2023-03-31T22:31:43.633Z,96.86
2023-03-31T22:34:12.057Z,97.29
2023-03-31T22:36:40.618Z,97.25
2023-03-31T22:39:10.367Z,97.57
2023-03-31T22:41:38.791Z,96.99
2023-03-31T22:44:07.121Z,97.24
2023-03-31T22:46:37.813Z,97.46
2023-03-31T22:49:06.706Z,97.36
2023-03-31T22:51:35.857Z,98.08
2023-03-31T22:54:04.250Z,97.50
2023-03-31T22:56:32.608Z,97.18
2023-03-31T22:59:01.131Z,97.49
2023-03-31T23:01:29.945Z,97.61
2023-03-31T23:04:00.655Z,97.84
2023-03-31T23:06:29.395Z,97.94
2023-03-31T23:08:58.302Z,98.25
2023-03-31T23:11:27.644Z,98.07
2023-03-31T23:13:55.923Z,98.20
2023-03-31T23:16:27.212Z,98.18
2023-03-31T23:18:56.346Z,97.99
2023-03-31T23:21:28.480Z,97.50
2023-03-31T23:23:58.776Z,97.29
2023-03-31T23:26:28.060Z,97.33
2023-03-31T23:28:57.462Z,97.20
2023-03-31T23:31:27.680Z,96.96
2023-03-31T23:33:56.382Z,97.16
2023-03-31T23:36:26.275Z,96.76
2023-03-31T23:38:56.125Z,96.31
2023-03-31T23:41:33.774Z,96.47
2023-03-31T23:44:02.370Z,96.46
2023-03-31T23:46:32.027Z,96.62
2023-03-31T23:49:02.682Z,96.50
2023-03-31T23:51:32.493Z,96.73
2023-03-31T23:54:00.955Z,96.77
2023-03-31T23:56:29.533Z,97.21
2023-03-31T23:58:57.742Z,97.28
